Bert Mooney Airport
KBTM : now visible

Airfield :











YOU CAN JOIN US ON...

 
LOGIN :

Register | Disclaimer

   EN    FR    IT 

 









Legend :    VFR   Marginal VFR   IFR   Intensive IFR   Very Intensive IFR
Visi :
Ceiling :
>= 8 km
>= 3000ft
5 to 8 km
1000 to 3000 ft
1500m to 5 km
500 to 1000 ft
800 to 1500m
200 to 500 ft
< 800m
< 200 ft
Symbols :   Thunderstorms  Fog  Heavy snow  Heavy precipitations  Wind > 20 kt






- Airport Elevation : 5550 ft
- IATA code : BTM


KBTM - Bert Mooney

CURRENT METAR :
  • 220228Z AUTO 02019G31KT 9SM -SN BKN017 OVC034 M02/M07 A2993 RMK AO2 PK WND 02031/0225 SNB08 P0000 T10221067

EXPIRED METARs :
  • 220153Z AUTO 29009KT 10SM BKN030 BKN039 OVC049 M01/M03 A2992 RMK AO2 SLP154 T10061028
  • 220053Z AUTO 28004KT 10SM BKN060 OVC080 02/M06 A2988 RMK AO2 SLP133 T00221056
  • 212353Z AUTO 32008KT 10SM OVC100 02/M05 A2987 RMK AO2 SLP129 60000 T00221050 10044 20011 56001

TAF KBTM
Valid from the 22 at 02:00 until the 23 at 00:00 UTC


220207Z 2202/2224 33010G20KT P6SM VCSH BKN030 OVC050
FM220300 32010G20KT 3SM -SN OVC020
TEMPO 2203/2205 1SM -SN OVC010
FM220500 32008KT P6SM VCSH OVC050
FM221600 18006KT P6SM SCT250
KZLC FIR / North America



MET'MAP, your aeronautical weather chart ! - Copyright ORBIFLY December 2007 - Disclaimer

ORBIFLY MET'MAP TEAM :

Programming & Development : Alexandra Zaïnal
Concept & original design : Baudouin d'Aumeries
Assistance for programming : Marc-Olivier Méhu
Technical & hardware support : Manuel Goepfert

Contact : metmap@orbifly.com




SOURCES & CREDITS :

   NOAA       Earth
Advisory